Time;durP1;ratioP1;P1;durP2;ratioP2;P2;SDS_P1;SDS_P2;PMS_P1;PMS_P2;Temp;Humidity;BMP_temperature;BMP_pressure;BME280_temperature;BME280_humidity;BME280_pressure;Samples;Min_cycle;Max_cycle;Signal;HPM_P1;HPM_P2
2022/02/28 00:00:27;;;;;;;;;;;;;;;;;;5119556;28;19915;-79
2022/02/28 00:02:52;;;;;;;;;;;;;;;;;;5121208;28;19963;-78
2022/02/28 00:05:18;;;;;;;;;;;;;;;;;;5120547;28;19923;-78
2022/02/28 00:07:43;;;;;;;;;;;;;;;;;;5121027;28;19959;-78
2022/02/28 00:10:09;;;;;;;;;;;;;;;;;;5121172;28;20613;-79
2022/02/28 00:12:34;;;;;;;;;;;;;;;;;;5120700;28;19915;-78
2022/02/28 00:15:00;;;;;;;;;;;;;;;;;;5105694;28;19938;-78
2022/02/28 00:17:26;;;;;;;;;;;;;;;;;;5100423;28;19923;-78
2022/02/28 00:19:51;;;;;;;;;;;;;;;;;;5101140;28;20439;-78
2022/02/28 00:22:17;;;;;;;;;;;;;;;;;;5100254;28;20328;-78
2022/02/28 00:24:42;;;;;;;;;;;;;;;;;;5099640;28;20281;-78
2022/02/28 00:27:07;;;;;;;;;;;;;;;;;;5099202;28;19916;-78
2022/02/28 00:29:33;;;;;;;;;;;;;;;;;;5097670;28;20373;-78
2022/02/28 00:31:58;;;;;;;;;;;;;;;;;;5099873;28;19916;-77
2022/02/28 00:34:23;;;;;;;;;;;;;;;;;;5098067;28;19916;-78
2022/02/28 00:36:49;;;;;;;;;;;;;;;;;;5099871;28;19916;-78
2022/02/28 00:39:14;;;;;;;;;;;;;;;;;;5098440;28;19916;-78
2022/02/28 00:41:39;;;;;;;;;;;;;;;;;;5096450;28;19970;-77
2022/02/28 00:44:06;;;;;;;;;;;;;;;;;;5079064;28;19959;-78
2022/02/28 00:46:31;;;;;;;;;;;;;;;;;;5060624;28;19917;-78
2022/02/28 00:48:58;;;;;;;;;;;;;;;;;;5077029;28;19916;-78
2022/02/28 00:51:23;;;;;;;;;;;;;;;;;;5076965;28;19965;-78
2022/02/28 00:53:48;;;;;;;;;;;;;;;;;;5079737;28;19952;-80
2022/02/28 00:56:13;;;;;;;;;;;;;;;;;;5079089;28;19916;-79
2022/02/28 00:58:39;;;;;;;;;;;;;;;;;;5079338;28;19938;-78
2022/02/28 01:01:05;;;;;;;;;;;;;;;;;;5079094;28;20425;-78
2022/02/28 01:03:30;;;;;;;;;;;;;;;;;;5079184;28;20015;-78
2022/02/28 01:05:55;;;;;;;;;;;;;;;;;;5095409;28;19916;-78
2022/02/28 01:08:21;;;;;;;;;;;;;;;;;;5079841;28;19960;-80
2022/02/28 01:10:47;;;;;;;;;;;;;;;;;;5079373;28;19916;-79
2022/02/28 01:13:12;;;;;;;;;;;;;;;;;;5096794;28;19916;-78
2022/02/28 01:15:37;;;;;;;;;;;;;;;;;;5098430;28;19923;-77
2022/02/28 01:18:03;;;;;;;;;;;;;;;;;;5098301;28;19967;-77
2022/02/28 01:20:29;;;;;;;;;;;;;;;;;;5097171;28;19977;-78
2022/02/28 01:22:54;;;;;;;;;;;;;;;;;;5096993;28;19916;-78
2022/02/28 01:25:19;;;;;;;;;;;;;;;;;;5096870;28;20026;-78
2022/02/28 01:27:45;;;;;;;;;;;;;;;;;;5098154;28;19916;-78
2022/02/28 01:30:11;;;;;;;;;;;;;;;;;;5098249;28;19916;-78
2022/02/28 01:32:36;;;;;;;;;;;;;;;;;;5096660;28;20423;-78
2022/02/28 01:35:03;;;;;;;;;;;;;;;;;;5095690;28;20400;-78
2022/02/28 01:37:28;;;;;;;;;;;;;;;;;;5097607;28;19951;-78
2022/02/28 01:39:54;;;;;;;;;;;;;;;;;;5097182;28;19916;-79
2022/02/28 01:42:19;;;;;;;;;;;;;;;;;;5088462;28;19956;-78
2022/02/28 01:44:44;;;;;;;;;;;;;;;;;;5075786;28;19916;-79
2022/02/28 01:47:10;;;;;;;;;;;;;;;;;;5080561;28;19917;-79
2022/02/28 01:49:36;;;;;;;;;;;;;;;;;;5079094;28;19928;-79
2022/02/28 01:52:02;;;;;;;;;;;;;;;;;;5061450;28;19916;-79
2022/02/28 01:54:27;;;;;;;;;;;;;;;;;;5078806;28;19964;-79
2022/02/28 01:56:53;;;;;;;;;;;;;;;;;;5078815;28;19921;-79
2022/02/28 01:59:19;;;;;;;;;;;;;;;;;;5078465;28;19962;-78
2022/02/28 02:01:44;;;;;;;;;;;;;;;;;;5080051;28;19921;-79
2022/02/28 02:04:09;;;;;;;;;;;;;;;;;;5078193;28;19917;-78
2022/02/28 02:06:35;;;;;;;;;;;;;;;;;;5079639;28;19981;-78
2022/02/28 02:09:02;;;;;;;;;;;;;;;;;;5078842;28;20562;-78
2022/02/28 02:11:27;;;;;;;;;;;;;;;;;;5077519;28;19952;-79
2022/02/28 02:13:53;;;;;;;;;;;;;;;;;;5097324;28;20235;-78
2022/02/28 02:16:19;;;;;;;;;;;;;;;;;;5115298;28;19916;-78
2022/02/28 02:18:44;;;;;;;;;;;;;;;;;;5117997;28;19916;-78
2022/02/28 02:21:09;;;;;;;;;;;;;;;;;;5118711;28;20351;-78
2022/02/28 02:23:35;;;;;;;;;;;;;;;;;;5117632;28;19979;-79
2022/02/28 02:26:00;;;;;;;;;;;;;;;;;;5118952;28;20270;-79
2022/02/28 02:28:27;;;;;;;;;;;;;;;;;;5118132;28;19916;-78
2022/02/28 02:30:54;;;;;;;;;;;;;;;;;;5100509;28;19926;-78
2022/02/28 02:33:21;;;;;;;;;;;;;;;;;;5117783;28;19922;-78
2022/02/28 02:35:53;;;;;;;;;;;;;;;;;;5117415;28;19923;-78
2022/02/28 02:38:19;;;;;;;;;;;;;;;;;;5117509;28;19920;-78
2022/02/28 02:40:45;;;;;;;;;;;;;;;;;;5117216;28;19916;-78
2022/02/28 02:43:10;;;;;;;;;;;;;;;;;;5103041;28;19916;-78
2022/02/28 02:45:36;;;;;;;;;;;;;;;;;;5096636;28;19923;-78
2022/02/28 02:48:15;;;;;;;;;;;;;;;;;;5096153;28;19916;-78
2022/02/28 02:50:41;;;;;;;;;;;;;;;;;;5079570;28;19922;-78
2022/02/28 02:53:07;;;;;;;;;;;;;;;;;;5095997;28;19964;-78
2022/02/28 02:55:32;;;;;;;;;;;;;;;;;;5097623;28;20366;-78
2022/02/28 02:57:58;;;;;;;;;;;;;;;;;;5097326;28;19916;-78
2022/02/28 03:00:23;;;;;;;;;;;;;;;;;;5079358;28;19916;-78
2022/02/28 03:02:58;;;;;;;;;;;;;;;;;;5095923;28;20019;-78
2022/02/28 03:05:24;;;;;;;;;;;;;;;;;;5095867;28;20379;-79
2022/02/28 03:07:49;;;;;;;;;;;;;;;;;;5099405;28;20261;-78
2022/02/28 03:10:15;;;;;;;;;;;;;;;;;;5100032;28;20377;-80
2022/02/28 03:12:41;;;;;;;;;;;;;;;;;;5092516;28;19915;-78
2022/02/28 03:15:07;;;;;;;;;;;;;;;;;;5119929;28;20348;-80
2022/02/28 03:17:33;;;;;;;;;;;;;;;;;;5095138;28;19920;-79
2022/02/28 03:19:58;;;;;;;;;;;;;;;;;;5081005;28;19916;-79
2022/02/28 03:22:24;;;;;;;;;;;;;;;;;;5078848;28;19966;-79
2022/02/28 03:24:50;;;;;;;;;;;;;;;;;;5078799;28;19978;-78
2022/02/28 03:27:15;;;;;;;;;;;;;;;;;;5078521;28;20267;-79
2022/02/28 03:29:45;;;;;;;;;;;;;;;;;;5079320;28;19916;-82
2022/02/28 03:32:11;;;;;;;;;;;;;;;;;;5078059;28;20378;-81
2022/02/28 03:34:37;;;;;;;;;;;;;;;;;;5077848;28;20023;-81
2022/02/28 03:37:02;;;;;;;;;;;;;;;;;;5077560;28;20457;-81
2022/02/28 03:39:27;;;;;;;;;;;;;;;;;;5078006;28;19932;-81
2022/02/28 03:41:54;;;;;;;;;;;;;;;;;;5077902;28;19927;-81
2022/02/28 03:44:20;;;;;;;;;;;;;;;;;;5077455;28;19916;-82
2022/02/28 03:46:46;;;;;;;;;;;;;;;;;;5077781;28;19917;-82
2022/02/28 03:49:16;;;;;;;;;;;;;;;;;;5079225;28;20018;-83
2022/02/28 03:52:01;;;;;;;;;;;;;;;;;;5070809;28;19916;-80
2022/02/28 03:54:53;;;;;;;;;;;;;;;;;;5065443;28;19920;-83
2022/02/28 03:57:19;;;;;;;;;;;;;;;;;;5078846;28;19916;-79
2022/02/28 03:59:44;;;;;;;;;;;;;;;;;;5078115;28;20281;-79
2022/02/28 04:02:10;;;;;;;;;;;;;;;;;;5082456;28;20332;-79
2022/02/28 04:04:41;;;;;;;;;;;;;;;;;;5101236;28;19966;-79
2022/02/28 04:07:06;;;;;;;;;;;;;;;;;;5088067;28;19920;-80
2022/02/28 04:09:36;;;;;;;;;;;;;;;;;;5103091;28;19912;-79
2022/02/28 04:12:03;;;;;;;;;;;;;;;;;;5105824;28;19916;-80
2022/02/28 04:14:29;;;;;;;;;;;;;;;;;;5106191;28;19943;-79
2022/02/28 04:16:55;;;;;;;;;;;;;;;;;;5105185;28;19923;-79
2022/02/28 04:19:49;;;;;;;;;;;;;;;;;;5092314;28;20378;-80
2022/02/28 04:22:15;;;;;;;;;;;;;;;;;;5105598;28;19927;-79
2022/02/28 04:24:42;;;;;;;;;;;;;;;;;;5104902;28;19923;-79
2022/02/28 04:27:07;;;;;;;;;;;;;;;;;;5101413;28;19916;-80
2022/02/28 04:29:33;;;;;;;;;;;;;;;;;;5102622;28;19973;-79
2022/02/28 04:32:05;;;;;;;;;;;;;;;;;;5102914;28;19939;-79
2022/02/28 04:34:35;;;;;;;;;;;;;;;;;;5102278;28;20322;-79
2022/02/28 04:37:00;;;;;;;;;;;;;;;;;;5102340;28;19951;-79
2022/02/28 04:39:26;;;;;;;;;;;;;;;;;;5101715;28;19963;-79
2022/02/28 04:41:54;;;;;;;;;;;;;;;;;;5102897;28;19920;-79
2022/02/28 04:44:20;;;;;;;;;;;;;;;;;;5100171;28;19916;-79
2022/02/28 04:46:46;;;;;;;;;;;;;;;;;;5103136;28;20371;-79
2022/02/28 04:49:31;;;;;;;;;;;;;;;;;;5103381;28;19994;-79
2022/02/28 04:51:57;;;;;;;;;;;;;;;;;;5101175;28;19923;-79
2022/02/28 04:54:23;;;;;;;;;;;;;;;;;;5102086;28;19920;-79
2022/02/28 04:56:50;;;;;;;;;;;;;;;;;;5100703;28;19916;-79
2022/02/28 04:59:16;;;;;;;;;;;;;;;;;;5100724;28;19923;-79
2022/02/28 05:01:52;;;;;;;;;;;;;;;;;;5085782;28;19936;-79
2022/02/28 05:04:40;;;;;;;;;;;;;;;;;;5100651;28;19916;-79
2022/02/28 05:07:06;;;;;;;;;;;;;;;;;;5100879;28;19923;-79
2022/02/28 05:09:31;;;;;;;;;;;;;;;;;;5100167;28;19969;-79
2022/02/28 05:11:58;;;;;;;;;;;;;;;;;;5099913;28;19916;-79
2022/02/28 05:14:24;;;;;;;;;;;;;;;;;;5108569;28;19923;-79
2022/02/28 05:16:50;;;;;;;;;;;;;;;;;;5119885;28;19939;-79
2022/02/28 05:19:15;;;;;;;;;;;;;;;;;;5119721;28;19951;-79
2022/02/28 05:21:41;;;;;;;;;;;;;;;;;;5105356;28;19920;-79
2022/02/28 05:24:07;;;;;;;;;;;;;;;;;;5124088;28;19930;-79
2022/02/28 05:26:33;;;;;;;;;;;;;;;;;;5114295;28;19920;-79
2022/02/28 05:28:59;;;;;;;;;;;;;;;;;;5083815;28;19925;-79
2022/02/28 05:31:24;;;;;;;;;;;;;;;;;;5086532;28;19958;-79
2022/02/28 05:34:00;;;;;;;;;;;;;;;;;;5102840;28;19920;-79
2022/02/28 05:36:25;;;;;;;;;;;;;;;;;;5102821;28;19966;-79
2022/02/28 05:39:04;;;;;;;;;;;;;;;;;;5101836;28;19916;-79
2022/02/28 05:41:30;;;;;;;;;;;;;;;;;;5098125;28;19931;-79
2022/02/28 05:44:01;;;;;;;;;;;;;;;;;;5103820;28;20269;-79
2022/02/28 05:46:26;;;;;;;;;;;;;;;;;;5123109;28;19926;-79
2022/02/28 05:49:01;;;;;;;;;;;;;;;;;;5121910;28;19922;-79
2022/02/28 05:51:32;;;;;;;;;;;;;;;;;;5121348;28;19920;-79
2022/02/28 05:53:57;;;;;;;;;;;;;;;;;;5122967;28;19973;-79
2022/02/28 05:56:23;;;;;;;;;;;;;;;;;;5121999;28;19919;-79
2022/02/28 05:58:48;;;;;;;;;;;;;;;;;;5121768;28;19922;-79
2022/02/28 06:01:13;;;;;;;;;;;;;;;;;;5120885;28;19991;-79
2022/02/28 06:03:39;;;;;;;;;;;;;;;;;;5120998;28;19916;-79
2022/02/28 06:06:04;;;;;;;;;;;;;;;;;;5122345;28;19915;-79
2022/02/28 06:08:30;;;;;;;;;;;;;;;;;;5121939;28;19915;-79
2022/02/28 06:10:55;;;;;;;;;;;;;;;;;;5120696;28;19916;-79
2022/02/28 06:13:20;;;;;;;;;;;;;;;;;;5121178;28;19915;-79
2022/02/28 06:15:46;;;;;;;;;;;;;;;;;;5103032;28;19955;-79
2022/02/28 06:18:11;;;;;;;;;;;;;;;;;;5099682;28;19916;-79
2022/02/28 06:20:37;;;;;;;;;;;;;;;;;;5099491;28;19951;-79
2022/02/28 06:23:02;;;;;;;;;;;;;;;;;;5100880;28;19935;-79
2022/02/28 06:25:28;;;;;;;;;;;;;;;;;;5100936;28;19912;-79
2022/02/28 06:27:53;;;;;;;;;;;;;;;;;;5100632;28;19927;-78
2022/02/28 06:30:19;;;;;;;;;;;;;;;;;;5099739;28;19920;-79
2022/02/28 06:32:45;;;;;;;;;;;;;;;;;;5100086;28;19916;-79
2022/02/28 06:35:10;;;;;;;;;;;;;;;;;;5101121;28;20411;-79
2022/02/28 06:37:35;;;;;;;;;;;;;;;;;;5101346;28;19975;-79
2022/02/28 06:40:00;;;;;;;;;;;;;;;;;;5101593;28;19916;-79
2022/02/28 06:42:26;;;;;;;;;;;;;;;;;;5103912;28;19920;-79
2022/02/28 06:44:51;;;;;;;;;;;;;;;;;;5105763;28;19916;-79
2022/02/28 06:47:16;;;;;;;;;;;;;;;;;;5102515;28;20282;-79
2022/02/28 06:49:42;;;;;;;;;;;;;;;;;;5102974;28;19916;-79
2022/02/28 06:52:07;;;;;;;;;;;;;;;;;;5104563;28;19916;-79
2022/02/28 06:54:32;;;;;;;;;;;;;;;;;;5102339;28;20015;-79
2022/02/28 06:56:57;;;;;;;;;;;;;;;;;;5104176;28;19938;-78
2022/02/28 06:59:23;;;;;;;;;;;;;;;;;;5105015;28;20011;-79
2022/02/28 07:01:49;;;;;;;;;;;;;;;;;;5105638;28;19920;-79
2022/02/28 07:04:37;;;;;;;;;;;;;;;;;;5076955;28;20519;-79
2022/02/28 07:07:03;;;;;;;;;;;;;;;;;;5107036;28;19941;-79
2022/02/28 07:09:28;;;;;;;;;;;;;;;;;;5105095;28;20392;-78
2022/02/28 07:11:53;;;;;;;;;;;;;;;;;;5102084;28;19916;-79
2022/02/28 07:14:19;;;;;;;;;;;;;;;;;;5100639;28;19923;-79
2022/02/28 07:16:44;;;;;;;;;;;;;;;;;;5100382;28;19916;-79
2022/02/28 07:19:09;;;;;;;;;;;;;;;;;;5098756;28;19916;-77
2022/02/28 07:21:36;;;;;;;;;;;;;;;;;;5099303;28;19920;-77
2022/02/28 07:24:01;;;;;;;;;;;;;;;;;;5099787;28;19916;-78
2022/02/28 07:26:29;;;;;;;;;;;;;;;;;;5098100;28;19923;-77
2022/02/28 07:28:55;;;;;;;;;;;;;;;;;;5098222;28;19912;-78
2022/02/28 07:31:20;;;;;;;;;;;;;;;;;;5097881;28;19916;-77
2022/02/28 07:33:46;;;;;;;;;;;;;;;;;;5098034;28;19916;-77
2022/02/28 07:36:11;;;;;;;;;;;;;;;;;;5097305;28;20377;-77
2022/02/28 07:38:39;;;;;;;;;;;;;;;;;;5097772;28;19916;-78
2022/02/28 07:41:04;;;;;;;;;;;;;;;;;;5096061;28;19916;-77
2022/02/28 07:43:29;;;;;;;;;;;;;;;;;;5096700;28;20601;-77
2022/02/28 07:45:54;;;;;;;;;;;;;;;;;;5099521;28;19916;-81
2022/02/28 07:48:20;;;;;;;;;;;;;;;;;;5102476;28;19916;-77
2022/02/28 07:50:45;;;;;;;;;;;;;;;;;;5099184;28;20368;-77
2022/02/28 07:53:10;;;;;;;;;;;;;;;;;;5095003;28;20017;-77
2022/02/28 07:55:36;;;;;;;;;;;;;;;;;;5096798;28;20057;-78
2022/02/28 07:58:01;;;;;;;;;;;;;;;;;;5078924;28;20278;-79
2022/02/28 08:00:26;;;;;;;;;;;;;;;;;;5099343;28;20321;-80
2022/02/28 08:02:52;;;;;;;;;;;;;;;;;;5095646;28;19920;-84
2022/02/28 08:05:17;;;;;;;;;;;;;;;;;;5089237;28;19920;-80
2022/02/28 08:07:42;;;;;;;;;;;;;;;;;;5083169;28;20461;-80
2022/02/28 08:10:08;;;;;;;;;;;;;;;;;;5076742;28;19991;-78
2022/02/28 08:12:33;;;;;;;;;;;;;;;;;;5083859;28;19927;-78
2022/02/28 08:14:59;;;;;;;;;;;;;;;;;;5092944;28;19920;-81
2022/02/28 08:17:24;;;;;;;;;;;;;;;;;;5097907;28;20312;-78
2022/02/28 08:19:49;;;;;;;;;;;;;;;;;;5089847;28;20289;-77
2022/02/28 08:22:15;;;;;;;;;;;;;;;;;;5076666;28;19966;-77
2022/02/28 08:24:40;;;;;;;;;;;;;;;;;;5092219;28;19916;-77
2022/02/28 08:27:05;;;;;;;;;;;;;;;;;;5096999;28;19924;-79
2022/02/28 08:29:31;;;;;;;;;;;;;;;;;;5085980;28;19917;-79
2022/02/28 08:31:56;;;;;;;;;;;;;;;;;;5095613;28;19916;-80
2022/02/28 08:34:21;;;;;;;;;;;;;;;;;;5100976;28;19985;-80
2022/02/28 08:36:47;;;;;;;;;;;;;;;;;;5098977;28;20377;-78
2022/02/28 08:39:12;;;;;;;;;;;;;;;;;;5088491;28;19916;-79
2022/02/28 08:41:37;;;;;;;;;;;;;;;;;;5081325;28;19920;-79
2022/02/28 08:44:03;;;;;;;;;;;;;;;;;;5085137;28;19924;-78
2022/02/28 08:46:29;;;;;;;;;;;;;;;;;;5098601;28;20045;-82
2022/02/28 08:48:54;;;;;;;;;;;;;;;;;;5081178;28;20011;-79
2022/02/28 08:51:19;;;;;;;;;;;;;;;;;;5080099;28;19917;-80
2022/02/28 08:53:45;;;;;;;;;;;;;;;;;;5079273;28;19927;-79
2022/02/28 08:56:10;;;;;;;;;;;;;;;;;;5078623;28;19922;-79
2022/02/28 08:58:36;;;;;;;;;;;;;;;;;;5078603;28;19916;-77
2022/02/28 09:01:01;;;;;;;;;;;;;;;;;;5078436;28;20447;-79
2022/02/28 09:03:26;;;;;;;;;;;;;;;;;;5097819;28;19916;-78
2022/02/28 09:05:52;;;;;;;;;;;;;;;;;;5096616;28;20362;-78
2022/02/28 09:08:17;;;;;;;;;;;;;;;;;;5086277;28;20405;-78
2022/02/28 09:10:42;;;;;;;;;;;;;;;;;;5078677;28;19946;-79
2022/02/28 09:13:08;;;;;;;;;;;;;;;;;;5078690;28;19999;-79
2022/02/28 09:15:35;;;;;;;;;;;;;;;;;;5092932;28;19921;-79
2022/02/28 09:18:00;;;;;;;;;;;;;;;;;;5078959;28;19924;-78
2022/02/28 09:20:25;;;;;;;;;;;;;;;;;;5077624;28;20492;-78
2022/02/28 09:22:51;;;;;;;;;;;;;;;;;;5077325;28;19921;-78
2022/02/28 09:25:17;;;;;;;;;;;;;;;;;;5097474;28;19923;-78
2022/02/28 09:27:43;;;;;;;;;;;;;;;;;;5090858;28;19969;-78
2022/02/28 09:30:08;;;;;;;;;;;;;;;;;;5089756;28;19916;-78
2022/02/28 09:32:35;;;;;;;;;;;;;;;;;;5095519;28;19920;-78
2022/02/28 09:35:00;;;;;;;;;;;;;;;;;;5097805;28;19979;-78
2022/02/28 09:37:25;;;;;;;;;;;;;;;;;;5079810;28;19916;-81
2022/02/28 09:39:51;;;;;;;;;;;;;;;;;;5097868;28;20002;-81
2022/02/28 09:42:53;;;;;;;;;;;;;;;;;;5035036;28;19928;-81
2022/02/28 09:45:36;;;;;;;;;;;;;;;;;;5087390;28;20412;-79
2022/02/28 09:48:25;;;;;;;;;;;;;;;;;;5051259;28;19923;-81
2022/02/28 09:51:17;;;;;;;;;;;;;;;;;;5056404;28;19916;-81
2022/02/28 09:54:01;;;;;;;;;;;;;;;;;;5080437;28;19927;-81
2022/02/28 09:56:46;;;;;;;;;;;;;;;;;;5078850;28;19916;-82
2022/02/28 09:59:52;;;;;;;;;;;;;;;;;;5015696;28;21378;-82
2022/02/28 10:02:18;;;;;;;;;;;;;;;;;;5002987;28;20277;-83
2022/02/28 10:04:46;;;;;;;;;;;;;;;;;;5037046;28;20374;-82
2022/02/28 10:07:19;;;;;;;;;;;;;;;;;;5079113;28;19970;-82
2022/02/28 10:09:44;;;;;;;;;;;;;;;;;;5077847;28;20366;-82
2022/02/28 10:12:09;;;;;;;;;;;;;;;;;;5079193;28;20048;-82
2022/02/28 10:14:35;;;;;;;;;;;;;;;;;;5078365;28;19916;-81
2022/02/28 10:17:00;;;;;;;;;;;;;;;;;;5077815;28;20382;-81
2022/02/28 10:19:29;;;;;;;;;;;;;;;;;;5077269;28;20293;-81
2022/02/28 10:22:01;;;;;;;;;;;;;;;;;;5077852;28;20287;-81
2022/02/28 10:24:31;;;;;;;;;;;;;;;;;;5077607;28;19946;-81
2022/02/28 10:27:35;;;;;;;;;;;;;;;;;;5077258;28;19917;-81
2022/02/28 10:30:04;;;;;;;;;;;;;;;;;;5077989;28;19928;-81
2022/02/28 10:32:55;;;;;;;;;;;;;;;;;;5077689;28;19983;-81
2022/02/28 10:36:01;;;;;;;;;;;;;;;;;;5077988;28;20336;-82
2022/02/28 10:38:42;;;;;;;;;;;;;;;;;;5077374;28;19917;-81
2022/02/28 10:41:14;;;;;;;;;;;;;;;;;;5076951;28;19923;-81
2022/02/28 10:43:41;;;;;;;;;;;;;;;;;;5078503;28;19999;-76
2022/02/28 10:46:16;;;;;;;;;;;;;;;;;;5093965;28;20331;-77
2022/02/28 10:48:52;;;;;;;;;;;;;;;;;;5097030;28;19915;-77
2022/02/28 10:51:17;;;;;;;;;;;;;;;;;;5096688;28;19963;-75
2022/02/28 10:53:43;;;;;;;;;;;;;;;;;;5096285;28;19931;-75
2022/02/28 10:56:08;;;;;;;;;;;;;;;;;;5099681;28;19916;-75
2022/02/28 10:58:35;;;;;;;;;;;;;;;;;;5099205;28;19916;-76
2022/02/28 11:01:05;;;;;;;;;;;;;;;;;;5097623;28;20365;-75
2022/02/28 11:03:44;;;;;;;;;;;;;;;;;;5090341;28;19916;-80
2022/02/28 11:06:09;;;;;;;;;;;;;;;;;;5083633;28;19956;-84
2022/02/28 11:08:41;;;;;;;;;;;;;;;;;;5096251;28;19938;-77
2022/02/28 11:11:10;;;;;;;;;;;;;;;;;;5094769;28;19939;-81
2022/02/28 11:13:35;;;;;;;;;;;;;;;;;;5078147;28;19917;-79
2022/02/28 11:16:01;;;;;;;;;;;;;;;;;;5114815;28;19995;-84
2022/02/28 11:18:27;;;;;;;;;;;;;;;;;;5116780;28;19923;-82
2022/02/28 11:20:55;;;;;;;;;;;;;;;;;;5117810;28;19961;-84
2022/02/28 11:23:21;;;;;;;;;;;;;;;;;;5101447;28;19920;-82
2022/02/28 11:25:47;;;;;;;;;;;;;;;;;;5118427;28;19916;-83
2022/02/28 11:28:13;;;;;;;;;;;;;;;;;;5120984;28;19966;-79
2022/02/28 11:30:38;;;;;;;;;;;;;;;;;;5124159;28;20377;-81
2022/02/28 11:33:05;;;;;;;;;;;;;;;;;;5123745;28;19987;-83
2022/02/28 11:35:53;;;;;;;;;;;;;;;;;;5110315;28;19920;-83
2022/02/28 11:38:18;;;;;;;;;;;;;;;;;;5098862;28;19952;-85
2022/02/28 11:40:46;;;;;;;;;;;;;;;;;;5105935;28;19927;-80
2022/02/28 11:43:28;;;;;;;;;;;;;;;;;;5084453;28;19921;-78
2022/02/28 11:45:58;;;;;;;;;;;;;;;;;;5081149;28;19927;-86
2022/02/28 11:48:34;;;;;;;;;;;;;;;;;;5079671;28;20615;-81
2022/02/28 11:51:22;;;;;;;;;;;;;;;;;;5080368;28;19942;-80
2022/02/28 11:53:49;;;;;;;;;;;;;;;;;;5071770;28;19920;-79
2022/02/28 11:56:18;;;;;;;;;;;;;;;;;;5098115;28;19916;-80
2022/02/28 11:58:54;;;;;;;;;;;;;;;;;;5096424;28;19920;-80
2022/02/28 12:01:26;;;;;;;;;;;;;;;;;;5100201;28;19920;-81
2022/02/28 12:04:07;;;;;;;;;;;;;;;;;;5097877;28;19916;-80
2022/02/28 12:06:48;;;;;;;;;;;;;;;;;;5101146;28;19961;-81
2022/02/28 12:09:31;;;;;;;;;;;;;;;;;;5088062;28;19947;-81
2022/02/28 12:12:21;;;;;;;;;;;;;;;;;;5082093;28;19923;-81
2022/02/28 12:15:03;;;;;;;;;;;;;;;;;;5085979;28;19916;-80
2022/02/28 12:20:21;;;;;;;;;;;;;;;;;;5091040;28;19920;-80
2022/02/28 12:22:56;;;;;;;;;;;;;;;;;;5099271;28;19927;-83
2022/02/28 12:25:40;;;;;;;;;;;;;;;;;;5115081;28;19938;-81
2022/02/28 12:28:17;;;;;;;;;;;;;;;;;;5082145;28;19917;-80
2022/02/28 12:30:44;;;;;;;;;;;;;;;;;;5095500;28;19920;-80
2022/02/28 12:33:14;;;;;;;;;;;;;;;;;;5098832;28;19916;-80
2022/02/28 12:35:46;;;;;;;;;;;;;;;;;;5112074;28;19915;-80
2022/02/28 12:38:13;;;;;;;;;;;;;;;;;;5101133;28;19916;-84
2022/02/28 12:40:39;;;;;;;;;;;;;;;;;;5109159;28;20378;-81
2022/02/28 12:43:04;;;;;;;;;;;;;;;;;;5078114;28;19923;-78
2022/02/28 12:45:29;;;;;;;;;;;;;;;;;;5079755;28;19916;-78
2022/02/28 12:47:55;;;;;;;;;;;;;;;;;;5088663;28;19916;-78
2022/02/28 12:50:21;;;;;;;;;;;;;;;;;;5099531;28;19916;-78
2022/02/28 12:52:51;;;;;;;;;;;;;;;;;;5105583;28;19972;-78
2022/02/28 12:55:17;;;;;;;;;;;;;;;;;;5118461;28;19947;-78
2022/02/28 12:57:42;;;;;;;;;;;;;;;;;;5110658;28;20333;-78
2022/02/28 13:00:08;;;;;;;;;;;;;;;;;;5098366;28;19916;-79
2022/02/28 13:02:34;;;;;;;;;;;;;;;;;;5098130;28;20398;-78
2022/02/28 13:04:59;;;;;;;;;;;;;;;;;;5089574;28;19920;-78
2022/02/28 13:07:25;;;;;;;;;;;;;;;;;;5096899;28;19923;-78
2022/02/28 13:09:51;;;;;;;;;;;;;;;;;;5081702;28;20533;-78
2022/02/28 13:12:26;;;;;;;;;;;;;;;;;;5077398;28;20385;-78
2022/02/28 13:14:53;;;;;;;;;;;;;;;;;;5078834;28;19923;-78
2022/02/28 13:17:20;;;;;;;;;;;;;;;;;;5078311;28;19920;-78
2022/02/28 13:19:46;;;;;;;;;;;;;;;;;;5113500;28;19997;-78
2022/02/28 13:22:18;;;;;;;;;;;;;;;;;;5118820;28;19920;-78
2022/02/28 13:24:43;;;;;;;;;;;;;;;;;;5099915;28;19924;-78
2022/02/28 13:27:10;;;;;;;;;;;;;;;;;;5099747;28;20370;-78
2022/02/28 13:29:37;;;;;;;;;;;;;;;;;;5097275;28;19923;-78
2022/02/28 13:32:06;;;;;;;;;;;;;;;;;;5099204;28;19976;-78
2022/02/28 13:34:32;;;;;;;;;;;;;;;;;;5098845;28;20001;-78
2022/02/28 13:36:58;;;;;;;;;;;;;;;;;;5095433;28;20213;-78
2022/02/28 13:39:26;;;;;;;;;;;;;;;;;;5078986;28;20015;-78
2022/02/28 13:42:12;;;;;;;;;;;;;;;;;;5078167;28;20394;-78
2022/02/28 13:44:39;;;;;;;;;;;;;;;;;;5076785;28;19920;-77
2022/02/28 13:47:20;;;;;;;;;;;;;;;;;;5077564;28;19917;-77
2022/02/28 13:49:58;;;;;;;;;;;;;;;;;;5075649;28;20354;-77
2022/02/28 13:52:26;;;;;;;;;;;;;;;;;;5083276;28;20305;-79
2022/02/28 13:55:05;;;;;;;;;;;;;;;;;;5074272;28;19917;-75
2022/02/28 13:57:35;;;;;;;;;;;;;;;;;;5089761;28;19958;-78
2022/02/28 14:00:06;;;;;;;;;;;;;;;;;;5095526;28;19965;-78
2022/02/28 14:02:55;;;;;;;;;;;;;;;;;;5093180;28;19920;-78
2022/02/28 14:05:22;;;;;;;;;;;;;;;;;;5093087;28;19916;-78
2022/02/28 14:07:57;;;;;;;;;;;;;;;;;;5093945;28;19969;-78
2022/02/28 14:10:24;;;;;;;;;;;;;;;;;;5093977;28;19916;-78
2022/02/28 14:12:49;;;;;;;;;;;;;;;;;;5093699;28;19923;-78
2022/02/28 14:15:15;;;;;;;;;;;;;;;;;;5093860;28;19933;-78
2022/02/28 14:17:51;;;;;;;;;;;;;;;;;;5094001;28;19916;-78
2022/02/28 14:20:16;;;;;;;;;;;;;;;;;;5093532;28;20346;-77
2022/02/28 14:23:08;;;;;;;;;;;;;;;;;;5093415;28;19920;-78
2022/02/28 14:26:05;;;;;;;;;;;;;;;;;;5094231;28;19923;-77
2022/02/28 14:29:07;;;;;;;;;;;;;;;;;;5031659;28;19917;-78
2022/02/28 14:31:54;;;;;;;;;;;;;;;;;;5089077;28;19969;-78
2022/02/28 14:34:20;;;;;;;;;;;;;;;;;;5093675;28;19916;-78
2022/02/28 14:36:47;;;;;;;;;;;;;;;;;;5093921;28;20010;-78
2022/02/28 14:39:13;;;;;;;;;;;;;;;;;;5093535;28;19916;-78
2022/02/28 14:41:38;;;;;;;;;;;;;;;;;;5093597;28;19920;-78
2022/02/28 14:44:04;;;;;;;;;;;;;;;;;;5093295;28;19920;-78
2022/02/28 14:46:30;;;;;;;;;;;;;;;;;;5093853;28;19983;-78
2022/02/28 14:48:56;;;;;;;;;;;;;;;;;;5093720;28;19955;-78
2022/02/28 14:51:21;;;;;;;;;;;;;;;;;;5092286;28;19923;-78
2022/02/28 14:53:47;;;;;;;;;;;;;;;;;;5093685;28;19928;-78
2022/02/28 14:56:12;;;;;;;;;;;;;;;;;;5092629;28;20297;-77
2022/02/28 14:58:38;;;;;;;;;;;;;;;;;;5093530;28;19916;-78
2022/02/28 15:01:04;;;;;;;;;;;;;;;;;;5093467;28;19919;-78
2022/02/28 15:03:29;;;;;;;;;;;;;;;;;;5096701;28;20285;-78
2022/02/28 15:05:54;;;;;;;;;;;;;;;;;;5097704;28;20433;-75
2022/02/28 15:08:20;;;;;;;;;;;;;;;;;;5097605;28;19912;-78
2022/02/28 15:10:48;;;;;;;;;;;;;;;;;;5097224;28;19923;-77
2022/02/28 15:13:15;;;;;;;;;;;;;;;;;;5097312;28;19944;-78
2022/02/28 15:15:40;;;;;;;;;;;;;;;;;;5115425;28;19915;-78
2022/02/28 15:18:05;;;;;;;;;;;;;;;;;;5117796;28;19938;-78
2022/02/28 15:20:31;;;;;;;;;;;;;;;;;;5117939;28;19920;-78
2022/02/28 15:22:56;;;;;;;;;;;;;;;;;;5117448;27;20366;-78
2022/02/28 15:25:21;;;;;;;;;;;;;;;;;;5116926;28;19915;-78
2022/02/28 15:27:47;;;;;;;;;;;;;;;;;;5078203;28;20389;-78
2022/02/28 15:30:12;;;;;;;;;;;;;;;;;;5076627;28;19924;-78
2022/02/28 15:32:38;;;;;;;;;;;;;;;;;;5076695;28;20291;-78
2022/02/28 15:35:04;;;;;;;;;;;;;;;;;;5076739;28;19928;-78
2022/02/28 15:37:30;;;;;;;;;;;;;;;;;;5075441;28;19917;-78
2022/02/28 15:39:55;;;;;;;;;;;;;;;;;;5076643;28;20050;-78
2022/02/28 15:42:21;;;;;;;;;;;;;;;;;;5090783;28;19919;-78
2022/02/28 15:44:46;;;;;;;;;;;;;;;;;;5099951;28;19916;-78
2022/02/28 15:47:11;;;;;;;;;;;;;;;;;;5087448;28;19942;-78
2022/02/28 15:49:36;;;;;;;;;;;;;;;;;;5081521;28;20280;-78
2022/02/28 15:52:02;;;;;;;;;;;;;;;;;;5095923;28;19920;-78
2022/02/28 15:54:31;;;;;;;;;;;;;;;;;;5085671;28;19923;-78
2022/02/28 15:56:56;;;;;;;;;;;;;;;;;;5072952;28;19942;-79
2022/02/28 15:59:22;;;;;;;;;;;;;;;;;;5080448;28;19920;-78
2022/02/28 16:01:47;;;;;;;;;;;;;;;;;;5075311;28;19929;-78
2022/02/28 16:04:13;;;;;;;;;;;;;;;;;;5081673;28;20011;-79
2022/02/28 16:06:38;;;;;;;;;;;;;;;;;;5076052;28;19923;-79
2022/02/28 16:09:03;;;;;;;;;;;;;;;;;;5077848;28;19962;-78
2022/02/28 16:11:29;;;;;;;;;;;;;;;;;;5093063;28;19969;-79
2022/02/28 16:13:55;;;;;;;;;;;;;;;;;;5094363;28;20007;-79
2022/02/28 16:16:21;;;;;;;;;;;;;;;;;;5096338;28;19958;-78
2022/02/28 16:18:47;;;;;;;;;;;;;;;;;;5096155;28;19916;-78
2022/02/28 16:21:12;;;;;;;;;;;;;;;;;;5095909;28;19916;-78
2022/02/28 16:23:38;;;;;;;;;;;;;;;;;;5095921;28;19916;-78
2022/02/28 16:26:03;;;;;;;;;;;;;;;;;;5095027;28;19927;-79
2022/02/28 16:28:30;;;;;;;;;;;;;;;;;;5077775;28;19998;-78
2022/02/28 16:30:55;;;;;;;;;;;;;;;;;;5096081;28;19948;-78
2022/02/28 16:33:21;;;;;;;;;;;;;;;;;;5095897;28;20399;-77
2022/02/28 16:35:47;;;;;;;;;;;;;;;;;;5095504;28;20415;-78
2022/02/28 16:38:12;;;;;;;;;;;;;;;;;;5088726;28;19916;-79
2022/02/28 16:40:38;;;;;;;;;;;;;;;;;;5090930;28;19970;-78
2022/02/28 16:43:03;;;;;;;;;;;;;;;;;;5093747;28;19924;-79
2022/02/28 16:45:28;;;;;;;;;;;;;;;;;;5111041;28;19915;-78
2022/02/28 16:47:54;;;;;;;;;;;;;;;;;;5115853;28;19919;-78
2022/02/28 16:50:19;;;;;;;;;;;;;;;;;;5115763;28;19966;-77
2022/02/28 16:52:45;;;;;;;;;;;;;;;;;;5115731;28;20002;-77
2022/02/28 16:55:10;;;;;;;;;;;;;;;;;;5115438;28;19923;-78